Time;durP1;ratioP1;P1;durP2;ratioP2;P2;SDS_P1;SDS_P2;PMS_P1;PMS_P2;Temp;Humidity;BMP_temperature;BMP_pressure;BME280_temperature;BME280_humidity;BME280_pressure;Samples;Min_cycle;Max_cycle;Signal;HPM_P1;HPM_P2
2021/11/02 00:02:05;;;;;;;8.57;2.55;;;6.90;92.40;;;;;;5048565;28;20181;-62
2021/11/02 00:04:32;;;;;;;7.18;2.60;;;6.80;92.20;;;;;;5057085;28;20036;-62
2021/11/02 00:06:59;;;;;;;8.55;2.67;;;6.80;92.20;;;;;;5060858;28;20041;-63
2021/11/02 00:09:28;;;;;;;9.00;2.70;;;6.80;92.20;;;;;;5039568;28;20045;-63
2021/11/02 00:11:55;;;;;;;5.65;2.75;;;6.80;92.10;;;;;;5061667;28;20067;-62
2021/11/02 00:14:25;;;;;;;4.97;2.65;;;6.80;92.10;;;;;;5054578;28;20088;-62
2021/11/02 00:16:57;;;;;;;8.55;2.95;;;6.80;92.10;;;;;;5052571;28;20045;-62
2021/11/02 00:19:26;;;;;;;6.60;2.90;;;6.80;92.20;;;;;;5057082;28;20049;-63
2021/11/02 00:21:54;;;;;;;5.55;2.47;;;6.80;92.20;;;;;;5067135;28;20053;-63
2021/11/02 00:26:54;;;;;;;6.63;2.22;;;6.70;92.20;;;;;;5066398;28;20049;-62
2021/11/02 00:29:21;;;;;;;9.38;2.10;;;6.70;92.40;;;;;;5058315;28;20165;-62
2021/11/02 00:31:48;;;;;;;7.22;2.70;;;6.60;92.20;;;;;;5066171;28;20041;-63
2021/11/02 00:34:14;;;;;;;7.53;2.65;;;6.60;92.50;;;;;;5058576;28;20045;-63
2021/11/02 00:36:41;;;;;;;5.65;2.75;;;6.50;92.10;;;;;;5063254;28;20044;-63
2021/11/02 00:39:08;;;;;;;11.00;2.97;;;6.50;92.20;;;;;;5059681;28;20045;-63
2021/11/02 00:41:35;;;;;;;7.20;2.50;;;6.40;92.30;;;;;;5064135;28;20049;-62
2021/11/02 00:44:02;;;;;;;7.68;2.55;;;6.30;92.30;;;;;;5048510;28;20033;-62
2021/11/02 00:46:32;;;;;;;4.88;2.00;;;6.30;92.40;;;;;;5064327;28;20059;-62
2021/11/02 00:48:59;;;;;;;11.10;2.20;;;6.30;92.50;;;;;;5059429;28;20063;-62
2021/11/02 00:51:26;;;;;;;7.20;1.85;;;6.40;92.60;;;;;;5058180;28;20052;-62
2021/11/02 00:53:53;;;;;;;9.50;2.60;;;6.50;92.60;;;;;;5050105;28;20056;-62
2021/11/02 00:56:20;;;;;;;6.97;2.17;;;6.40;92.40;;;;;;5060962;28;20048;-61
2021/11/02 00:58:47;;;;;;;5.53;1.67;;;6.40;92.50;;;;;;5055154;28;20052;-63
2021/11/02 01:01:13;;;;;;;4.93;1.52;;;6.40;92.50;;;;;;5061401;28;20033;-63
2021/11/02 01:03:40;;;;;;;5.57;2.40;;;6.50;92.50;;;;;;5062736;28;20112;-62
2021/11/02 01:06:07;;;;;;;10.05;1.90;;;6.40;92.50;;;;;;5058166;28;20032;-62
2021/11/02 01:08:34;;;;;;;4.72;2.35;;;6.40;92.50;;;;;;5064441;28;20075;-62
2021/11/02 01:11:01;;;;;;;10.90;1.92;;;6.40;92.50;;;;;;5056246;28;20052;-64
2021/11/02 01:13:28;;;;;;;7.85;1.92;;;6.40;92.60;;;;;;5056378;28;20041;-63
2021/11/02 01:15:55;;;;;;;3.20;1.42;;;6.40;92.60;;;;;;5055232;28;20072;-62
2021/11/02 01:18:22;;;;;;;4.05;1.77;;;6.40;92.60;;;;;;5064133;28;20091;-63
2021/11/02 01:20:49;;;;;;;2.75;1.90;;;6.40;92.60;;;;;;5057569;28;20115;-63
2021/11/02 01:23:15;;;;;;;3.05;1.65;;;6.30;92.70;;;;;;5061376;28;20084;-61
2021/11/02 01:25:42;;;;;;;7.18;2.17;;;6.30;92.70;;;;;;5066389;28;20029;-62
2021/11/02 01:28:09;;;;;;;5.05;1.70;;;6.20;92.70;;;;;;5063251;28;20057;-62
2021/11/02 01:30:36;;;;;;;4.43;1.67;;;6.20;92.80;;;;;;5055014;28;20041;-64
2021/11/02 01:33:03;;;;;;;5.38;1.65;;;6.20;92.80;;;;;;5058005;28;20140;-63
2021/11/02 01:35:30;;;;;;;3.50;1.75;;;6.10;92.60;;;;;;5054099;28;20042;-63
2021/11/02 01:37:57;;;;;;;7.85;1.40;;;6.20;92.60;;;;;;5057886;28;20518;-63
2021/11/02 01:40:25;;;;;;;7.60;1.50;;;6.10;92.60;;;;;;5052758;28;20565;-63
2021/11/02 01:42:52;;;;;;;11.43;2.33;;;6.00;92.40;;;;;;5059629;28;20053;-63
2021/11/02 01:45:21;;;;;;;8.00;1.67;;;5.90;92.60;;;;;;5060311;28;20037;-63
2021/11/02 01:47:48;;;;;;;4.38;1.98;;;5.90;92.70;;;;;;5053269;28;20550;-62
2021/11/02 01:50:15;;;;;;;5.18;2.13;;;5.90;92.70;;;;;;5062370;28;20045;-62
2021/11/02 01:52:42;;;;;;;8.50;2.00;;;5.90;92.70;;;;;;5064932;28;20049;-63
2021/11/02 01:55:13;;;;;;;4.70;1.80;;;5.90;92.80;;;;;;5056579;28;20033;-63
2021/11/02 01:57:40;;;;;;;6.57;2.13;;;5.90;92.80;;;;;;5066046;28;20045;-62
2021/11/02 02:00:10;;;;;;;8.65;2.42;;;5.80;92.80;;;;;;5059166;28;20046;-63
2021/11/02 02:03:12;;;;;;;6.75;2.33;;;5.80;92.90;;;;;;5049709;28;20045;-63
2021/11/02 02:06:17;;;;;;;6.45;2.90;;;5.80;93.40;;;;;;5059346;28;20045;-62
2021/11/02 02:09:12;;;;;;;7.82;2.85;;;5.80;93.30;;;;;;5058128;28;20059;-63
2021/11/02 02:11:57;;;;;;;8.90;3.50;;;5.80;92.90;;;;;;5062062;28;20041;-62
2021/11/02 02:14:33;;;;;;;4.07;1.98;;;5.70;92.80;;;;;;5056148;28;20107;-62
2021/11/02 02:17:00;;;;;;;6.75;1.60;;;5.60;92.70;;;;;;5060379;28;20072;-62
2021/11/02 02:19:48;;;;;;;3.05;1.90;;;5.60;92.80;;;;;;5042125;28;20045;-62
2021/11/02 02:22:50;;;;;;;4.97;1.98;;;5.50;93.20;;;;;;5052856;28;20044;-62
2021/11/02 02:25:32;;;;;;;6.05;1.83;;;5.40;93.30;;;;;;5053097;28;20045;-63
2021/11/02 02:28:02;;;;;;;5.18;1.60;;;5.40;93.20;;;;;;5059005;28;20061;-63
2021/11/02 02:30:29;;;;;;;10.27;3.72;;;5.40;92.90;;;;;;5061858;28;20064;-62
2021/11/02 02:32:55;;;;;;;5.55;2.20;;;5.60;92.70;;;;;;5055842;28;20132;-62
2021/11/02 02:35:22;;;;;;;2.72;1.42;;;5.50;92.80;;;;;;5057089;28;20082;-62
2021/11/02 02:37:49;;;;;;;5.88;2.22;;;5.40;92.80;;;;;;5053005;28;20087;-62
2021/11/02 02:40:17;;;;;;;4.10;2.13;;;5.40;92.90;;;;;;5057625;28;20055;-62
2021/11/02 02:42:44;;;;;;;5.05;2.08;;;5.40;93.20;;;;;;5051624;28;20059;-62
2021/11/02 02:45:13;;;;;;;3.97;1.85;;;5.40;92.70;;;;;;5061229;28;20475;-63
2021/11/02 02:47:41;;;;;;;4.03;1.90;;;5.40;92.60;;;;;;5053782;28;20064;-62
2021/11/02 02:50:07;;;;;;;4.78;1.75;;;5.40;92.80;;;;;;5044108;28;20037;-62
2021/11/02 02:52:34;;;;;;;6.63;1.90;;;5.40;92.80;;;;;;5065717;28;20045;-63
2021/11/02 02:55:01;;;;;;;3.67;2.80;;;5.40;92.80;;;;;;5064569;28;20052;-63
2021/11/02 02:57:28;;;;;;;3.40;1.77;;;5.30;92.80;;;;;;5043680;28;20046;-63
2021/11/02 02:59:55;;;;;;;6.47;2.72;;;6.10;93.00;;;;;;5062534;28;20045;-62
2021/11/02 03:02:23;;;;;;;5.63;1.90;;;5.30;92.70;;;;;;5046876;28;20045;-62
2021/11/02 03:04:53;;;;;;;8.55;1.73;;;5.30;92.70;;;;;;5064696;28;20076;-63
2021/11/02 03:07:20;;;;;;;5.93;2.15;;;5.30;92.80;;;;;;5061233;28;20060;-63
2021/11/02 03:09:47;;;;;;;6.88;2.55;;;5.30;92.70;;;;;;5066828;28;20543;-64
2021/11/02 03:12:18;;;;;;;4.60;1.30;;;5.30;92.80;;;;;;5063134;28;20045;-65
2021/11/02 03:17:26;;;;;;;3.00;1.45;;;5.40;93.00;;;;;;5054987;28;20417;-63
2021/11/02 03:45:09;;;;;;;2.65;1.13;;;5.20;93.10;;;;;;5043770;28;20045;-63
2021/11/02 04:37:03;;;;;;;5.45;1.50;;;4.80;92.80;;;;;;5051136;28;20045;-62
2021/11/02 05:52:48;;;;;;;7.70;2.90;;;4.50;93.70;;;;;;5058077;28;20196;-62
2021/11/02 05:57:50;;;;;;;15.80;2.50;;;4.50;93.60;;;;;;5064009;28;20043;-62
2021/11/02 06:00:20;;;;;;;5.95;2.42;;;4.60;93.60;;;;;;5063300;28;20052;-63
2021/11/02 06:03:03;;;;;;;3.35;1.90;;;4.50;93.50;;;;;;5057538;28;20053;-62
2021/11/02 06:30:21;;;;;;;3.50;1.58;;;4.20;93.60;;;;;;5062628;28;20033;-63
2021/11/02 06:33:03;;;;;;;6.15;1.83;;;4.20;93.60;;;;;;5064472;28;20037;-63
2021/11/02 06:35:33;;;;;;;5.72;2.05;;;4.20;93.50;;;;;;5065887;28;20041;-63
2021/11/02 06:38:28;;;;;;;4.60;2.28;;;4.20;93.50;;;;;;5056189;28;20042;-62
2021/11/02 06:54:41;;;;;;;6.28;2.05;;;4.40;94.20;;;;;;5060920;28;20049;-63
2021/11/02 06:57:31;;;;;;;4.65;2.22;;;4.40;94.10;;;;;;5054772;28;20042;-62
2021/11/02 07:16:53;;;;;;;6.10;2.58;;;4.30;93.90;;;;;;5066046;28;20077;-63
2021/11/02 07:19:26;;;;;;;9.68;3.47;;;4.30;94.00;;;;;;5057620;28;20037;-63
2021/11/02 08:47:59;;;;;;;12.60;4.65;;;7.20;93.70;;;;;;5042377;28;20104;-64
2021/11/02 08:50:29;;;;;;;53.67;12.18;;;7.60;93.40;;;;;;5033264;28;20495;-64
2021/11/02 08:52:57;;;;;;;12.00;3.13;;;7.70;93.30;;;;;;5030365;28;20501;-64
2021/11/02 08:55:24;;;;;;;10.43;2.80;;;7.60;93.20;;;;;;5040695;28;20420;-63
2021/11/02 08:57:52;;;;;;;13.45;3.25;;;7.50;93.40;;;;;;5042104;28;20092;-63
2021/11/02 09:00:19;;;;;;;10.48;3.00;;;7.50;93.40;;;;;;5033823;28;20522;-64
2021/11/02 09:02:53;;;;;;;9.80;2.83;;;7.40;93.60;;;;;;5042849;28;20143;-63
2021/11/02 09:05:28;;;;;;;;;;;7.30;93.80;;;;;;5037627;28;20056;-64
2021/11/02 09:07:57;;;;;;;7.85;2.55;;;7.30;93.90;;;;;;5026805;28;20459;-64
2021/11/02 09:10:24;;;;;;;6.38;2.15;;;7.40;93.70;;;;;;5035124;28;20052;-63
2021/11/02 09:12:53;;;;;;;7.15;2.33;;;7.30;93.70;;;;;;5045880;28;20102;-63
2021/11/02 09:15:30;;;;;;;16.77;3.22;;;7.30;93.60;;;;;;5038102;28;20075;-64
2021/11/02 09:17:57;;;;;;;8.20;2.70;;;7.30;93.80;;;;;;5026778;28;20452;-62
2021/11/02 09:20:25;;;;;;;11.18;4.63;;;7.40;93.70;;;;;;5042160;28;20061;-63
2021/11/02 09:22:52;;;;;;;7.03;3.10;;;7.40;93.60;;;;;;5026826;28;20135;-63
2021/11/02 09:25:19;;;;;;;9.50;3.35;;;7.40;93.70;;;;;;5038681;28;20454;-63
2021/11/02 09:27:46;;;;;;;16.13;3.17;;;7.50;93.70;;;;;;5044791;28;20056;-63
2021/11/02 09:30:14;;;;;;;10.40;3.88;;;7.50;93.40;;;;;;5036140;28;20477;-63
2021/11/02 09:32:46;;;;;;;7.22;2.85;;;7.50;93.50;;;;;;5038674;28;20077;-63
2021/11/02 09:35:13;;;;;;;8.30;2.97;;;7.60;93.40;;;;;;5034682;28;20045;-62
2021/11/02 09:37:54;;;;;;;6.15;2.83;;;7.60;93.40;;;;;;5028605;28;20096;-63
2021/11/02 09:40:51;;;;;;;6.55;3.17;;;7.70;93.30;;;;;;5018467;28;20053;-62
2021/11/02 09:43:49;;;;;;;14.45;2.83;;;7.70;93.30;;;;;;5026468;28;20107;-63
2021/11/02 09:46:32;;;;;;;9.48;2.67;;;7.80;93.40;;;;;;5017115;28;20479;-63
2021/11/02 09:49:06;;;;;;;6.35;3.05;;;7.90;93.20;;;;;;5046135;28;20061;-62
2021/11/02 09:51:57;;;;;;;9.50;3.70;;;7.90;93.20;;;;;;5041225;28;20042;-63
2021/11/02 09:55:10;;;;;;;8.32;4.13;;;8.00;92.70;;;;;;5030969;28;20112;-62
2021/11/02 09:57:43;;;;;;;6.97;2.90;;;8.00;92.50;;;;;;5040351;28;20048;-63
2021/11/02 10:00:31;;;;;;;8.80;2.60;;;8.10;92.80;;;;;;5035388;28;20087;-63
2021/11/02 10:03:18;;;;;;;7.63;2.85;;;8.00;92.10;;;;;;5014844;28;20047;-63
2021/11/02 10:06:24;;;;;;;6.38;2.70;;;8.10;92.20;;;;;;5044454;28;20071;-63
2021/11/02 10:09:07;;;;;;;9.32;3.97;;;8.10;92.60;;;;;;5031980;28;20057;-64
2021/11/02 10:11:52;;;;;;;8.88;2.80;;;8.20;92.40;;;;;;5032314;28;20057;-63
2021/11/02 10:14:43;;;;;;;11.45;2.50;;;8.20;92.00;;;;;;5028562;28;20053;-63
2021/11/02 10:17:45;;;;;;;7.43;2.22;;;8.30;91.60;;;;;;5033927;28;20107;-62
2021/11/02 10:20:32;;;;;;;6.43;2.40;;;8.40;91.90;;;;;;5047650;28;20143;-62
2021/11/02 10:23:21;;;;;;;17.23;2.88;;;8.50;91.70;;;;;;5040725;28;20053;-62
2021/11/02 10:26:18;;;;;;;11.80;2.22;;;8.50;92.30;;;;;;5037089;28;20072;-63
2021/11/02 10:29:08;;;;;;;8.23;2.70;;;8.50;91.60;;;;;;5041879;28;20053;-62
2021/11/02 10:32:00;;;;;;;7.40;2.28;;;8.60;91.50;;;;;;5043463;28;20499;-63
2021/11/02 10:34:42;;;;;;;7.50;2.28;;;8.60;91.70;;;;;;5039138;28;20131;-63
2021/11/02 10:37:31;;;;;;;5.95;2.42;;;8.70;91.20;;;;;;5040311;28;20045;-62
2021/11/02 10:40:18;;;;;;;2.78;1.80;;;8.80;91.20;;;;;;5047702;28;20103;-62
2021/11/02 10:43:10;;;;;;;10.45;2.63;;;8.80;91.50;;;;;;5045207;28;20049;-62
2021/11/02 10:45:38;;;;;;;9.55;3.55;;;8.80;90.50;;;;;;5034682;28;20053;-63
2021/11/02 10:48:07;;;;;;;4.68;2.65;;;8.90;91.40;;;;;;5035489;28;20087;-61
2021/11/02 10:50:38;;;;;;;6.93;1.90;;;8.90;91.80;;;;;;5047478;28;20505;-64
2021/11/02 10:53:06;;;;;;;8.77;2.05;;;9.00;91.40;;;;;;5035820;28;20505;-64
2021/11/02 10:55:34;;;;;;;10.07;2.00;;;9.00;91.20;;;;;;5035323;28;20091;-64
2021/11/02 10:58:32;;;;;;;5.38;2.35;;;9.00;91.20;;;;;;5037505;28;20123;-64
2021/11/02 11:01:06;;;;;;;5.00;2.28;;;9.10;90.20;;;;;;5036034;28;20148;-64
2021/11/02 11:03:34;;;;;;;7.68;3.17;;;9.20;90.50;;;;;;5031719;28;20055;-64
2021/11/02 11:06:02;;;;;;;19.02;3.80;;;9.20;91.00;;;;;;5033527;28;20056;-64
2021/11/02 11:08:32;;;;;;;9.10;2.47;;;9.20;90.80;;;;;;5038946;28;20147;-64
2021/11/02 11:10:59;;;;;;;14.00;7.05;;;9.30;90.90;;;;;;5028536;28;20045;-65
2021/11/02 11:13:28;;;;;;;6.85;2.60;;;9.40;90.60;;;;;;5021198;28;20049;-62
2021/11/02 11:16:07;;;;;;;23.95;8.05;;;9.50;90.70;;;;;;5043744;28;20044;-62
2021/11/02 11:18:45;;;;;;;9.07;2.85;;;9.50;90.00;;;;;;5041692;28;20161;-62
2021/11/02 11:21:12;;;;;;;6.68;2.10;;;9.60;88.40;;;;;;5048322;28;20084;-62
2021/11/02 11:23:43;;;;;;;12.30;2.20;;;9.60;90.40;;;;;;5033456;28;20153;-66
2021/11/02 11:26:10;;;;;;;5.70;2.97;;;9.70;90.30;;;;;;5047120;28;20041;-63
2021/11/02 11:28:40;;;;;;;7.90;3.28;;;9.70;90.10;;;;;;5031727;28;20049;-63
2021/11/02 11:31:07;;;;;;;6.60;2.58;;;9.80;88.90;;;;;;5040954;28;20053;-63
2021/11/02 11:33:34;;;;;;;4.45;1.77;;;9.80;89.30;;;;;;5041421;28;20037;-63
2021/11/02 11:36:03;;;;;;;4.47;1.83;;;9.90;89.20;;;;;;5047432;28;20474;-64
2021/11/02 11:38:43;;;;;;;3.38;1.55;;;9.90;88.20;;;;;;5046110;28;20103;-63
2021/11/02 11:41:12;;;;;;;2.33;1.50;;;9.90;86.70;;;;;;5040774;28;20139;-64
2021/11/02 11:43:41;;;;;;;12.13;2.95;;;10.00;86.70;;;;;;5039204;28;20073;-64
2021/11/02 11:46:08;;;;;;;9.02;3.05;;;10.10;88.80;;;;;;5043291;28;20077;-64
2021/11/02 11:48:40;;;;;;;18.13;10.55;;;10.10;87.20;;;;;;5003197;28;1129988;-65
2021/11/02 11:51:08;;;;;;;7.40;1.98;;;10.10;87.50;;;;;;5031463;28;20053;-64
2021/11/02 11:53:36;;;;;;;6.45;2.75;;;10.20;88.20;;;;;;5033058;28;20049;-64
2021/11/02 11:56:08;;;;;;;4.80;1.52;;;10.20;88.40;;;;;;5048894;28;20045;-64
2021/11/02 11:58:36;;;;;;;13.95;5.40;;;10.30;88.20;;;;;;5035765;28;20157;-64
2021/11/02 12:01:15;;;;;;;10.55;3.13;;;10.30;88.10;;;;;;5031859;28;20036;-64
2021/11/02 12:03:55;;;;;;;11.02;2.53;;;10.40;85.40;;;;;;5053285;28;20056;-64
2021/11/02 12:06:22;;;;;;;24.38;10.90;;;10.40;84.60;;;;;;5052596;28;20048;-64
2021/11/02 12:08:52;;;;;;;15.13;7.47;;;10.40;86.30;;;;;;5054937;28;20048;-64
2021/11/02 12:11:21;;;;;;;18.40;10.38;;;10.40;86.30;;;;;;5046214;28;20049;-65
2021/11/02 12:13:49;;;;;;;6.57;3.20;;;10.50;86.80;;;;;;5033679;28;20049;-64
2021/11/02 12:16:22;;;;;;;16.65;5.60;;;10.50;86.60;;;;;;5033097;28;20085;-64
2021/11/02 12:19:25;;;;;;;44.03;18.55;;;10.50;86.70;;;;;;5033750;28;20608;-64
2021/11/02 12:22:03;;;;;;;23.23;9.13;;;10.60;84.20;;;;;;5022022;28;20512;-63
2021/11/02 12:24:31;;;;;;;10.75;4.13;;;10.70;83.30;;;;;;5037789;28;20048;-64
2021/11/02 12:27:13;;;;;;;13.60;2.80;;;10.60;84.50;;;;;;5040684;28;20063;-64
2021/11/02 12:29:41;;;;;;;5.53;1.13;;;10.60;82.50;;;;;;5054930;28;20080;-64
2021/11/02 12:32:12;;;;;;;6.20;2.22;;;10.60;83.70;;;;;;5043902;28;20297;-65
2021/11/02 12:34:55;;;;;;;3.90;1.50;;;10.70;85.80;;;;;;5030339;28;20057;-65
2021/11/02 12:37:22;;;;;;;1.90;0.75;;;10.80;80.20;;;;;;5036766;28;20057;-64
2021/11/02 12:39:49;;;;;;;7.00;1.75;;;10.80;82.80;;;;;;5031534;28;20050;-64
2021/11/02 12:42:20;;;;;;;6.65;1.77;;;10.80;83.70;;;;;;5041293;28;20055;-64
2021/11/02 12:44:49;;;;;;;6.25;1.33;;;10.90;84.00;;;;;;5030503;28;20057;-65
2021/11/02 12:47:20;;;;;;;9.60;1.58;;;10.90;84.00;;;;;;5031883;28;20131;-64
2021/11/02 12:49:48;;;;;;;7.97;2.00;;;10.90;83.50;;;;;;5013390;28;20215;-64
2021/11/02 12:52:15;;;;;;;3.20;1.35;;;11.00;81.40;;;;;;5041061;28;20073;-64
2021/11/02 12:54:42;;;;;;;8.98;1.95;;;11.00;81.10;;;;;;5035892;28;20110;-64
2021/11/02 12:57:15;;;;;;;8.63;1.58;;;11.10;82.30;;;;;;5038106;28;20060;-65
2021/11/02 12:59:47;;;;;;;6.13;1.25;;;11.20;82.50;;;;;;5051059;28;20045;-65
2021/11/02 13:02:35;;;;;;;6.43;1.98;;;11.20;83.10;;;;;;5041819;28;20056;-64
2021/11/02 13:05:03;;;;;;;8.13;1.73;;;11.40;80.10;;;;;;5030347;28;20053;-63
2021/11/02 13:07:38;;;;;;;5.68;1.13;;;11.40;82.30;;;;;;5029707;28;20056;-65
2021/11/02 13:10:19;;;;;;;6.32;1.45;;;11.40;78.60;;;;;;5039290;28;20045;-64
2021/11/02 13:12:52;;;;;;;5.88;2.05;;;11.50;77.50;;;;;;5038759;28;20076;-64
2021/11/02 13:15:19;;;;;;;5.07;3.17;;;11.50;79.40;;;;;;5031290;28;20049;-62
2021/11/02 13:17:48;;;;;;;5.20;1.92;;;11.50;80.60;;;;;;5035121;28;20049;-64
2021/11/02 13:20:30;;;;;;;10.13;4.60;;;11.50;80.30;;;;;;5043971;28;20072;-64
2021/11/02 13:22:57;;;;;;;6.70;1.95;;;11.60;77.10;;;;;;5034848;28;20041;-64
2021/11/02 13:25:39;;;;;;;5.80;1.40;;;11.60;80.60;;;;;;5048709;28;20110;-65
2021/11/02 13:28:06;;;;;;;8.20;4.13;;;11.60;76.20;;;;;;5049779;28;20081;-64
2021/11/02 13:30:40;;;;;;;4.05;2.05;;;11.60;77.00;;;;;;5034068;28;20518;-64
2021/11/02 13:33:12;;;;;;;;;;;11.60;78.20;;;;;;5041604;28;20053;-64
2021/11/02 13:35:55;;;;;;;5.65;2.03;;;11.60;74.30;;;;;;5047056;28;19932;-64
2021/11/02 13:38:28;;;;;;;3.57;1.67;;;11.60;76.50;;;;;;5039607;28;20112;-64
2021/11/02 13:41:19;;;;;;;10.25;4.35;;;11.60;77.40;;;;;;5038547;28;20061;-64
2021/11/02 13:43:47;;;;;;;6.35;1.75;;;11.60;77.90;;;;;;5025309;28;20053;-64
2021/11/02 13:46:19;;;;;;;26.13;13.35;;;11.60;79.30;;;;;;5047670;28;20075;-64
2021/11/02 13:48:46;;;;;;;4.40;1.70;;;11.70;75.40;;;;;;5041978;28;20520;-64
2021/11/02 13:51:14;;;;;;;13.32;6.85;;;11.70;78.10;;;;;;5031437;28;20084;-63
2021/11/02 13:53:42;;;;;;;15.00;5.68;;;11.80;78.10;;;;;;5033139;28;20552;-64
2021/11/02 13:56:14;;;;;;;4.95;1.98;;;11.80;77.40;;;;;;5036880;28;20535;-64
2021/11/02 13:58:40;;;;;;;5.45;1.92;;;11.90;76.00;;;;;;5041528;28;20076;-64
2021/11/02 14:01:38;;;;;;;4.82;1.48;;;12.00;79.30;;;;;;5042389;28;20045;-64
2021/11/02 14:04:25;;;;;;;3.33;1.38;;;12.10;72.90;;;;;;5043162;28;20071;-64
2021/11/02 14:07:03;;;;;;;3.90;1.63;;;12.10;75.30;;;;;;5038963;28;20100;-64
2021/11/02 14:09:32;;;;;;;4.03;1.48;;;12.10;72.00;;;;;;5043823;28;20052;-64
2021/11/02 14:11:59;;;;;;;2.85;0.90;;;12.10;77.60;;;;;;5029004;28;20400;-63
2021/11/02 14:14:33;;;;;;;8.10;1.52;;;12.20;77.90;;;;;;5035878;28;20087;-64
2021/11/02 14:17:19;;;;;;;;;;;12.20;71.20;;;;;;5039721;28;20045;-63
2021/11/02 14:19:49;;;;;;;7.82;1.58;;;12.20;73.10;;;;;;5032615;28;19925;-63
2021/11/02 14:22:47;;;;;;;3.67;1.40;;;12.30;73.40;;;;;;5042647;28;20051;-65
2021/11/02 14:25:32;;;;;;;2.55;1.30;;;12.30;71.20;;;;;;5043680;28;20415;-63
2021/11/02 14:27:59;;;;;;;5.55;0.93;;;12.40;71.80;;;;;;5027321;28;20587;-64
2021/11/02 14:30:32;;;;;;;5.00;1.23;;;12.50;77.00;;;;;;5036508;28;20053;-64
2021/11/02 14:33:19;;;;;;;3.38;1.08;;;12.50;75.80;;;;;;5030124;28;20041;-64
2021/11/02 14:36:02;;;;;;;12.32;1.85;;;12.40;74.00;;;;;;5018832;28;20077;-63
2021/11/02 14:38:45;;;;;;;4.55;1.55;;;12.40;70.50;;;;;;5052591;28;20093;-63
2021/11/02 14:41:30;;;;;;;6.45;1.38;;;12.50;75.00;;;;;;5045597;28;20072;-64
2021/11/02 14:44:24;;;;;;;12.65;1.20;;;12.50;67.40;;;;;;5040148;28;20295;-64
2021/11/02 14:46:55;;;;;;;2.58;1.02;;;12.50;68.30;;;;;;5053640;28;20045;-63
2021/11/02 14:49:28;;;;;;;3.70;1.45;;;12.40;69.90;;;;;;5026758;28;20428;-63
2021/11/02 14:52:05;;;;;;;5.63;1.30;;;12.50;71.20;;;;;;5056521;28;20343;-63
2021/11/02 14:54:36;;;;;;;4.50;1.35;;;12.50;69.40;;;;;;5045194;28;20049;-63
2021/11/02 14:57:18;;;;;;;3.67;1.33;;;12.50;71.10;;;;;;5057373;28;20060;-63
2021/11/02 14:59:58;;;;;;;2.75;1.10;;;12.70;72.50;;;;;;5060886;28;20441;-63
2021/11/02 15:02:37;;;;;;;7.03;1.60;;;12.90;68.20;;;;;;5052247;28;20041;-63
2021/11/02 15:05:06;;;;;;;1.88;1.10;;;13.20;63.50;;;;;;5044529;28;20296;-64
2021/11/02 15:07:40;;;;;;;1.67;0.80;;;13.50;68.00;;;;;;5049227;28;20056;-64
2021/11/02 15:10:08;;;;;;;;;;;14.00;67.40;;;;;;5059096;28;20307;-64
2021/11/02 15:12:36;;;;;;;5.65;2.63;;;14.60;57.60;;;;;;5050436;28;19925;-64
2021/11/02 15:15:03;;;;;;;5.05;1.38;;;15.20;68.70;;;;;;5061090;28;20053;-65
2021/11/02 15:17:30;;;;;;;3.20;1.50;;;15.50;66.50;;;;;;5052925;28;20045;-63
2021/11/02 15:20:22;;;;;;;4.05;1.70;;;15.90;66.10;;;;;;5064273;28;20049;-63
2021/11/02 15:22:48;;;;;;;5.10;2.85;;;16.20;63.60;;;;;;5053202;28;20099;-63
2021/11/02 15:25:15;;;;;;;7.22;2.10;;;16.30;63.80;;;;;;5051823;28;20056;-63
2021/11/02 15:27:43;;;;;;;5.18;1.40;;;16.50;63.10;;;;;;5046659;28;20075;-64
2021/11/02 15:30:11;;;;;;;7.70;2.60;;;16.40;62.70;;;;;;5057492;28;20075;-63
2021/11/02 15:32:42;;;;;;;7.68;2.25;;;16.50;60.10;;;;;;5054447;28;20147;-63
2021/11/02 15:35:11;;;;;;;4.18;1.95;;;16.50;62.70;;;;;;5062098;28;20095;-63
2021/11/02 15:37:41;;;;;;;17.45;6.40;;;16.70;58.50;;;;;;5051176;28;20045;-63
2021/11/02 15:40:13;;;;;;;6.60;1.63;;;16.20;60.70;;;;;;5051650;28;20049;-63
2021/11/02 15:42:41;;;;;;;12.52;7.35;;;15.10;59.70;;;;;;5055115;28;20049;-63
2021/11/02 15:45:35;;;;;;;10.57;4.75;;;14.50;64.60;;;;;;5047699;28;20403;-63
2021/11/02 15:48:06;;;;;;;6.38;2.55;;;14.00;65.20;;;;;;5054319;28;20045;-64
2021/11/02 15:50:34;;;;;;;14.23;4.35;;;13.60;63.90;;;;;;5041832;28;20080;-63
2021/11/02 15:53:06;;;;;;;9.77;3.38;;;13.40;66.40;;;;;;5053304;28;20053;-64
2021/11/02 15:55:32;;;;;;;7.90;3.30;;;13.20;66.40;;;;;;5039864;28;20057;-62
2021/11/02 15:58:02;;;;;;;5.68;1.88;;;13.00;67.40;;;;;;5045689;28;20437;-63
2021/11/02 16:00:38;;;;;;;8.15;1.92;;;12.70;67.80;;;;;;5048869;28;20049;-64
2021/11/02 16:03:05;;;;;;;8.18;2.10;;;12.70;68.60;;;;;;5044719;28;20041;-64
2021/11/02 16:05:33;;;;;;;7.70;2.20;;;12.40;69.60;;;;;;5057832;28;20118;-64
2021/11/02 16:08:02;;;;;;;3.97;2.13;;;12.20;70.20;;;;;;5055775;28;20129;-63
2021/11/02 16:10:32;;;;;;;4.40;1.88;;;12.00;71.10;;;;;;5054632;28;20049;-64
2021/11/02 16:13:06;;;;;;;7.25;2.70;;;11.90;71.60;;;;;;5054472;28;20045;-63
2021/11/02 16:15:38;;;;;;;7.53;2.53;;;11.80;72.30;;;;;;5053240;28;20541;-64
2021/11/02 16:18:13;;;;;;;6.20;3.08;;;11.70;72.30;;;;;;5052579;28;20140;-63
2021/11/02 16:20:41;;;;;;;7.65;3.15;;;11.50;72.90;;;;;;5052083;28;20545;-64
2021/11/02 16:23:12;;;;;;;8.02;2.30;;;11.40;73.10;;;;;;5053661;28;20114;-65
2021/11/02 16:25:57;;;;;;;7.03;2.20;;;11.40;74.30;;;;;;5051171;28;20340;-64
2021/11/02 16:28:28;;;;;;;4.75;2.40;;;11.20;74.60;;;;;;5054485;28;20128;-63
2021/11/02 16:30:58;;;;;;;6.00;2.47;;;11.10;75.00;;;;;;5036495;28;20048;-64
2021/11/02 16:33:43;;;;;;;7.70;2.10;;;11.00;75.20;;;;;;5055696;28;20570;-64
2021/11/02 16:36:28;;;;;;;5.63;2.20;;;10.90;77.70;;;;;;5035580;28;20131;-64
2021/11/02 16:39:21;;;;;;;5.85;2.03;;;10.80;77.90;;;;;;5043266;28;20057;-63
2021/11/02 16:41:50;;;;;;;;;;;10.60;78.80;;;;;;5058124;28;20573;-64
2021/11/02 16:44:29;;;;;;;6.72;3.05;;;10.50;80.20;;;;;;5054029;28;20142;-64
2021/11/02 16:47:09;;;;;;;13.05;3.47;;;10.40;80.00;;;;;;5048718;28;20055;-63
2021/11/02 16:49:37;;;;;;;7.63;3.90;;;10.30;79.00;;;;;;5054646;28;20068;-63
2021/11/02 16:52:09;;;;;;;6.85;2.83;;;10.20;78.50;;;;;;5055288;28;20048;-63
2021/11/02 16:54:42;;;;;;;6.72;2.70;;;10.10;79.60;;;;;;5049011;28;20049;-63
2021/11/02 16:57:19;;;;;;;6.63;1.70;;;10.00;79.60;;;;;;5053940;28;20045;-63
2021/11/02 16:59:57;;;;;;;3.42;1.35;;;10.00;80.10;;;;;;5050403;28;20045;-64
2021/11/02 17:02:29;;;;;;;5.18;1.98;;;9.80;79.80;;;;;;5057462;28;20056;-66
2021/11/02 17:05:10;;;;;;;7.97;1.83;;;9.80;80.90;;;;;;5051801;28;20036;-64
2021/11/02 17:07:47;;;;;;;5.55;2.05;;;9.70;82.00;;;;;;5043680;28;20648;-64
2021/11/02 17:10:23;;;;;;;3.05;1.80;;;9.70;81.50;;;;;;5039956;28;20554;-64
2021/11/02 17:13:10;;;;;;;2.55;1.10;;;9.70;81.10;;;;;;5045509;28;20053;-64
2021/11/02 17:15:45;;;;;;;4.07;1.67;;;9.50;81.50;;;;;;5047228;28;20041;-64
2021/11/02 17:18:16;;;;;;;8.50;1.63;;;9.50;81.90;;;;;;5044678;28;20099;-63
2021/11/02 17:20:47;;;;;;;4.97;1.77;;;9.40;82.10;;;;;;5030493;28;20056;-64
2021/11/02 17:23:19;;;;;;;3.30;1.60;;;9.30;82.50;;;;;;5053477;28;20484;-63
2021/11/02 17:25:48;;;;;;;5.25;2.50;;;9.20;83.70;;;;;;5053547;28;20199;-63
2021/11/02 17:28:15;;;;;;;10.38;2.55;;;9.10;83.40;;;;;;5056519;28;20049;-63
2021/11/02 17:30:41;;;;;;;4.72;2.17;;;9.10;83.70;;;;;;5048700;28;20048;-64
2021/11/02 17:33:08;;;;;;;9.05;2.13;;;9.00;84.00;;;;;;5057821;28;20350;-64
2021/11/02 17:35:35;;;;;;;8.77;2.22;;;9.00;84.10;;;;;;5052579;28;20068;-64
2021/11/02 17:38:02;;;;;;;7.82;2.42;;;9.00;84.60;;;;;;5049735;28;20048;-63
2021/11/02 17:40:29;;;;;;;6.20;2.30;;;8.80;84.80;;;;;;5042614;28;20280;-64
2021/11/02 17:42:59;;;;;;;8.00;2.28;;;8.80;85.20;;;;;;5046573;28;20054;-63
2021/11/02 17:45:26;;;;;;;6.68;2.90;;;8.70;85.40;;;;;;5040670;28;20041;-63
2021/11/02 17:47:54;;;;;;;5.40;2.13;;;8.70;85.50;;;;;;5044242;28;20083;-64
2021/11/02 17:50:23;;;;;;;11.00;2.85;;;8.70;85.70;;;;;;5053029;28;20065;-64
2021/11/02 17:52:51;;;;;;;4.35;2.30;;;8.60;85.90;;;;;;5044591;28;20041;-65
2021/11/02 17:55:18;;;;;;;5.43;2.40;;;8.60;86.10;;;;;;5050154;28;20395;-64
2021/11/02 17:57:46;;;;;;;8.52;2.78;;;8.50;86.40;;;;;;5026957;28;20049;-65
2021/11/02 18:00:21;;;;;;;6.05;2.40;;;8.40;86.80;;;;;;5036699;28;20625;-64
2021/11/02 18:02:50;;;;;;;6.47;2.75;;;8.30;87.10;;;;;;5041624;28;20404;-63
2021/11/02 18:05:17;;;;;;;6.72;2.30;;;8.20;87.30;;;;;;5056186;28;20041;-64
2021/11/02 18:07:45;;;;;;;8.98;3.20;;;8.20;87.50;;;;;;5049382;28;20305;-64
2021/11/02 18:10:12;;;;;;;14.35;4.25;;;8.10;87.50;;;;;;5036184;28;20073;-64
2021/11/02 18:12:39;;;;;;;6.50;2.58;;;8.10;87.60;;;;;;5043900;28;20049;-64
2021/11/02 18:15:06;;;;;;;8.23;3.47;;;8.00;87.70;;;;;;5058880;28;20528;-65
2021/11/02 18:17:36;;;;;;;7.50;3.28;;;7.90;87.90;;;;;;5022259;28;20262;-64
2021/11/02 18:20:06;;;;;;;8.75;3.88;;;7.90;88.10;;;;;;5039347;28;20389;-63
2021/11/02 18:22:33;;;;;;;12.85;6.68;;;7.90;88.30;;;;;;5043956;28;20108;-64